Terminal Aerodrome Forecast
Issued by NWS

Home | Current Version | Previous Version | Text Only | Print | Product List | Glossary On
Versions: 1 2 3 4 5 6 7 8 9 10 11 12 13 14 15 16 17
000
FTUS43 KIND 251100
TAFBMG
TAF
KBMG 251120Z 2512/2612 17006KT P6SM SCT030 OVC060
     FM251400 16007KT P6SM VCSH OVC025
     FM251700 14008KT 3SM -SHRA OVC009
     FM260000 02010KT 4SM -RASN OVC006
     FM260300 01013G24KT 3SM -SN OVC007
     FM260800 35013G24KT P6SM OVC010
      AMD LTD TO CLD VIS AND WIND TIL 251400=

USA.gov is the U.S. government's official web portal to all federal, state and local government web resources and services.